Time;durP1;ratioP1;P1;durP2;ratioP2;P2;SDS_P1;SDS_P2;PMS_P1;PMS_P2;Temp;Humidity;BMP_temperature;BMP_pressure;BME280_temperature;BME280_humidity;BME280_pressure;Samples;Min_cycle;Max_cycle;Signal;HPM_P1;HPM_P2
2023/06/15 00:01:48;;;;;;;11.60;5.85;;;;;;;-144.87;100.00;61487.56;5015530;28;20038;-71
2023/06/15 00:04:15;;;;;;;10.05;5.93;;;;;;;-144.87;100.00;61487.56;5020916;28;20037;-73
2023/06/15 00:06:41;;;;;;;8.60;6.03;;;;;;;-144.87;100.00;61487.56;5012372;28;20030;-72
2023/06/15 00:09:07;;;;;;;14.95;6.68;;;;;;;-144.87;100.00;61487.56;5022108;28;20119;-72
2023/06/15 00:11:33;;;;;;;9.77;6.15;;;;;;;-144.87;100.00;61487.56;5003412;28;20642;-71
2023/06/15 00:14:00;;;;;;;12.55;6.20;;;;;;;-144.87;100.00;61487.56;4978759;28;20030;-72
2023/06/15 00:16:31;;;;;;;10.52;6.20;;;;;;;-144.87;100.00;61487.56;4967971;28;20081;-72
2023/06/15 00:18:58;;;;;;;9.32;6.57;;;;;;;-144.87;100.00;61487.56;4992993;28;20438;-71
2023/06/15 00:21:28;;;;;;;18.83;6.40;;;;;;;-144.87;100.00;61487.56;4994314;28;20041;-71
2023/06/15 00:23:54;;;;;;;11.38;7.38;;;;;;;-144.87;100.00;61487.56;5003915;28;20042;-70
2023/06/15 00:26:20;;;;;;;12.70;6.65;;;;;;;-144.87;100.00;61487.56;4997336;28;20121;-71
2023/06/15 00:28:48;;;;;;;12.63;6.18;;;;;;;-144.87;100.00;61487.56;5006795;28;20038;-72
2023/06/15 00:31:16;;;;;;;13.55;6.65;;;;;;;-144.87;100.00;61487.56;4991125;28;20046;-73
2023/06/15 00:33:42;;;;;;;10.70;6.68;;;;;;;-144.87;100.00;61487.56;4995674;28;20038;-72
2023/06/15 00:36:12;;;;;;;13.60;7.05;;;;;;;-144.87;100.00;61487.56;4992176;28;20049;-73
2023/06/15 00:38:39;;;;;;;13.60;7.20;;;;;;;-144.87;100.00;61487.56;4993466;28;20113;-72
2023/06/15 00:41:06;;;;;;;10.75;7.25;;;;;;;-144.87;100.00;61487.56;4986054;28;20045;-73
2023/06/15 00:43:32;;;;;;;9.48;7.00;;;;;;;-144.87;100.00;61487.56;4991274;28;20034;-72
2023/06/15 00:45:58;;;;;;;9.75;6.88;;;;;;;-144.87;100.00;61487.56;4985690;28;20029;-73
2023/06/15 00:48:24;;;;;;;15.25;7.22;;;;;;;-144.87;100.00;61487.56;4950785;28;20029;-73
2023/06/15 00:50:51;;;;;;;18.95;8.48;;;;;;;-144.87;100.00;61487.56;4982222;28;20299;-73
2023/06/15 00:53:17;;;;;;;12.30;7.90;;;;;;;-144.87;100.00;61487.56;4999519;28;20041;-73
2023/06/15 00:55:48;;;;;;;13.52;7.70;;;;;;;-144.87;100.00;61487.56;4958281;28;20042;-71
2023/06/15 00:58:14;;;;;;;19.38;7.57;;;;;;;-144.87;100.00;61487.56;4964488;28;20144;-72
2023/06/15 01:00:41;;;;;;;17.50;7.78;;;;;;;-144.87;100.00;61487.56;4978004;28;20030;-73
2023/06/15 01:03:07;;;;;;;13.10;7.38;;;;;;;-144.87;100.00;61487.56;4991263;28;20038;-72
2023/06/15 01:05:34;;;;;;;11.05;7.30;;;;;;;-144.87;100.00;61487.56;4994919;28;20126;-72
2023/06/15 01:08:10;;;;;;;11.40;7.35;;;;;;;-144.87;100.00;61487.56;5003155;28;20038;-72
2023/06/15 01:10:36;;;;;;;12.80;8.80;;;;;;;-144.87;100.00;61487.56;4990245;28;20133;-73
2023/06/15 01:13:04;;;;;;;13.23;8.30;;;;;;;-144.87;100.00;61487.56;4999018;28;20038;-72
2023/06/15 01:15:31;;;;;;;18.98;8.82;;;;;;;-144.87;100.00;61487.56;4994692;28;20042;-72
2023/06/15 01:17:59;;;;;;;15.10;7.30;;;;;;;-144.87;100.00;61487.56;4982476;28;20054;-73
2023/06/15 01:20:32;;;;;;;15.13;7.93;;;;;;;-144.87;100.00;61487.56;4995772;28;20044;-71
2023/06/15 01:23:12;;;;;;;10.85;7.20;;;;;;;-144.87;100.00;61487.56;4974590;28;20030;-73
2023/06/15 01:26:01;;;;;;;18.90;7.40;;;;;;;-144.87;100.00;61487.56;4994335;28;20089;-73
2023/06/15 01:28:30;;;;;;;18.05;7.43;;;;;;;-144.87;100.00;61487.56;4954884;28;20041;-72
2023/06/15 01:30:57;;;;;;;10.05;7.05;;;;;;;-144.87;100.00;61487.56;4982973;28;20038;-74
2023/06/15 01:33:23;;;;;;;14.23;7.40;;;;;;;-144.87;100.00;61487.56;4971803;28;20088;-73
2023/06/15 01:35:50;;;;;;;14.68;7.10;;;;;;;-144.87;100.00;61487.56;4972373;28;20034;-72
2023/06/15 01:38:20;;;;;;;16.58;7.40;;;;;;;-144.87;100.00;61487.56;4999568;28;20034;-72
2023/06/15 01:40:49;;;;;;;12.27;7.13;;;;;;;-144.87;100.00;61487.56;4992653;28;20030;-72
2023/06/15 01:43:22;;;;;;;15.32;8.45;;;;;;;-144.87;100.00;61487.56;4993415;28;20098;-73
2023/06/15 01:45:50;;;;;;;15.65;7.80;;;;;;;-144.87;100.00;61487.56;5004218;28;20038;-73
2023/06/15 01:48:17;;;;;;;11.43;7.13;;;;;;;-144.87;100.00;61487.56;4981024;28;20030;-72
2023/06/15 01:50:43;;;;;;;15.38;7.93;;;;;;;-144.87;100.00;61487.56;4986229;28;20152;-72
2023/06/15 01:53:10;;;;;;;14.20;8.50;;;;;;;-144.87;100.00;61487.56;4984025;28;20042;-72
2023/06/15 01:55:36;;;;;;;16.90;8.00;;;;;;;-144.87;100.00;61487.56;4994853;28;20038;-72
2023/06/15 01:58:02;;;;;;;14.77;8.05;;;;;;;-144.87;100.00;61487.56;4986983;28;20046;-72
2023/06/15 02:00:29;;;;;;;14.80;7.97;;;;;;;-144.87;100.00;61487.56;4983149;28;20098;-73
2023/06/15 02:02:57;;;;;;;12.68;7.82;;;;;;;-144.87;100.00;61487.56;5009075;28;20034;-73
2023/06/15 02:05:23;;;;;;;18.73;9.30;;;;;;;-144.87;100.00;61487.56;5003596;28;20045;-73
2023/06/15 02:07:50;;;;;;;12.85;8.32;;;;;;;-144.87;100.00;61487.56;4994026;28;20068;-73
2023/06/15 02:10:18;;;;;;;13.82;8.43;;;;;;;-144.87;100.00;61487.56;4994339;28;20030;-72
2023/06/15 02:12:45;;;;;;;13.25;8.05;;;;;;;-144.87;100.00;61487.56;5047455;28;20064;-72
2023/06/15 02:15:18;;;;;;;15.90;8.20;;;;;;;-144.87;100.00;61487.56;5018382;28;20038;-73
2023/06/15 02:17:45;;;;;;;13.70;8.40;;;;;;;-144.87;100.00;61487.56;5003304;28;20030;-72
2023/06/15 02:20:12;;;;;;;15.63;8.88;;;;;;;-144.87;100.00;61487.56;5029234;28;20038;-73
2023/06/15 02:22:38;;;;;;;16.13;9.23;;;;;;;-144.87;100.00;61487.56;5035648;28;20131;-73
2023/06/15 02:25:07;;;;;;;14.13;9.15;;;;;;;-144.87;100.00;61487.56;5020568;28;20316;-73
2023/06/15 02:27:34;;;;;;;13.82;9.50;;;;;;;-144.87;100.00;61487.56;5024653;28;20035;-73
2023/06/15 02:30:01;;;;;;;17.33;9.25;;;;;;;-144.87;100.00;61487.56;5017362;28;20037;-73
2023/06/15 02:32:36;;;;;;;16.42;9.05;;;;;;;-144.87;100.00;61487.56;5019529;28;20048;-73
2023/06/15 02:35:05;;;;;;;18.70;9.95;;;;;;;-144.87;100.00;61487.56;5023281;28;20052;-73
2023/06/15 02:37:31;;;;;;;14.82;10.07;;;;;;;-144.87;100.00;61487.56;5011769;28;20030;-73
2023/06/15 02:39:58;;;;;;;17.05;10.48;;;;;;;-144.87;100.00;61487.56;5020494;28;20046;-72
2023/06/15 02:42:24;;;;;;;15.75;10.60;;;;;;;-144.87;100.00;61487.56;5018103;28;20061;-72
2023/06/15 02:44:51;;;;;;;14.43;9.00;;;;;;;-144.87;100.00;61487.56;5018287;28;20133;-72
2023/06/15 02:47:18;;;;;;;15.07;9.70;;;;;;;-144.87;100.00;61487.56;5020789;28;20030;-72
2023/06/15 02:49:44;;;;;;;15.80;9.90;;;;;;;-144.87;100.00;61487.56;5019494;28;20100;-72
2023/06/15 02:52:11;;;;;;;12.55;9.80;;;;;;;-144.87;100.00;61487.56;5018780;28;20049;-71
2023/06/15 02:54:39;;;;;;;14.55;10.13;;;;;;;-144.87;100.00;61487.56;5016715;28;20049;-73
2023/06/15 02:57:06;;;;;;;14.88;9.60;;;;;;;-144.87;100.00;61487.56;5026786;28;20044;-74
2023/06/15 02:59:37;;;;;;;11.73;10.15;;;;;;;-144.87;100.00;61487.56;5036614;28;20085;-73
2023/06/15 03:02:08;;;;;;;19.75;10.55;;;;;;;-144.87;100.00;61487.56;5036618;28;20030;-71
2023/06/15 03:04:44;;;;;;;16.20;10.02;;;;;;;-144.87;100.00;61487.56;5030938;28;20038;-72
2023/06/15 03:07:16;;;;;;;15.30;10.77;;;;;;;-144.87;100.00;61487.56;5026992;28;20022;-72
2023/06/15 03:10:07;;;;;;;15.73;11.38;;;;;;;-144.87;100.00;61487.56;5021799;28;20025;-73
2023/06/15 03:12:37;;;;;;;15.90;10.83;;;;;;;-144.87;100.00;61487.56;5022610;28;20101;-73
2023/06/15 03:15:04;;;;;;;13.18;10.85;;;;;;;-144.87;100.00;61487.56;5018089;28;20037;-74
2023/06/15 03:17:35;;;;;;;16.58;11.20;;;;;;;-144.87;100.00;61487.56;5008954;28;20133;-73
2023/06/15 03:20:03;;;;;;;18.08;11.18;;;;;;;-144.87;100.00;61487.56;5024737;28;20060;-73
2023/06/15 03:22:29;;;;;;;20.45;10.88;;;;;;;-144.87;100.00;61487.56;5006421;28;20063;-74
2023/06/15 03:24:56;;;;;;;14.00;10.70;;;;;;;-144.87;100.00;61487.56;5013011;28;20052;-72
2023/06/15 03:27:23;;;;;;;15.45;10.57;;;;;;;-144.87;100.00;61487.56;5021680;28;20033;-73
2023/06/15 03:29:51;;;;;;;16.13;11.25;;;;;;;-144.87;100.00;61487.56;5018340;28;20100;-73
2023/06/15 03:32:18;;;;;;;13.43;10.75;;;;;;;-144.87;100.00;61487.56;5033528;28;20112;-74
2023/06/15 03:34:44;;;;;;;17.13;11.10;;;;;;;-144.87;100.00;61487.56;5013448;28;20103;-73
2023/06/15 03:37:12;;;;;;;12.95;10.40;;;;;;;-144.87;100.00;61487.56;5025074;28;20038;-75
2023/06/15 03:39:41;;;;;;;15.60;11.35;;;;;;;-144.87;100.00;61487.56;5022005;28;20595;-73
2023/06/15 03:42:08;;;;;;;17.50;11.90;;;;;;;-144.87;100.00;61487.56;5030835;28;20044;-73
2023/06/15 03:44:35;;;;;;;15.00;11.18;;;;;;;-144.87;100.00;61487.56;5026389;28;20038;-74
2023/06/15 03:47:02;;;;;;;18.85;13.02;;;;;;;-144.87;100.00;61487.56;5024824;28;20024;-74
2023/06/15 03:49:28;;;;;;;16.00;12.18;;;;;;;-144.87;100.00;61487.56;5016544;28;20049;-74
2023/06/15 03:51:55;;;;;;;16.20;11.57;;;;;;;-144.87;100.00;61487.56;5025703;28;20065;-73
2023/06/15 03:54:21;;;;;;;16.08;11.45;;;;;;;-144.87;100.00;61487.56;5005141;28;20052;-73
2023/06/15 03:56:49;;;;;;;17.80;11.65;;;;;;;-144.87;100.00;61487.56;5012645;28;20034;-73
2023/06/15 03:59:16;;;;;;;17.17;11.45;;;;;;;-144.87;100.00;61487.56;5010487;28;20034;-73
2023/06/15 04:01:43;;;;;;;15.45;10.45;;;;;;;-144.87;100.00;61487.56;5006360;28;20041;-73
2023/06/15 04:04:12;;;;;;;16.92;10.50;;;;;;;-144.87;100.00;61487.56;4999735;28;20034;-73
2023/06/15 04:06:38;;;;;;;19.98;13.40;;;;;;;-144.87;100.00;61487.56;5023225;28;20025;-73
2023/06/15 04:09:05;;;;;;;17.75;11.15;;;;;;;-144.87;100.00;61487.56;5013595;28;20037;-73
2023/06/15 04:11:31;;;;;;;14.82;9.88;;;;;;;-144.87;100.00;61487.56;5008896;28;20051;-72
2023/06/15 04:13:58;;;;;;;15.07;10.35;;;;;;;-144.87;100.00;61487.56;4978873;28;21520;-73
2023/06/15 04:16:25;;;;;;;18.48;10.38;;;;;;;-144.87;100.00;61487.56;4973133;28;20034;-72
2023/06/15 04:18:53;;;;;;;15.48;9.18;;;;;;;-144.87;100.00;61487.56;4984990;28;20431;-72
2023/06/15 04:21:19;;;;;;;16.58;9.23;;;;;;;-144.87;100.00;61487.56;5004687;28;20144;-72
2023/06/15 04:23:46;;;;;;;16.23;9.68;;;;;;;-144.87;100.00;61487.56;4988415;28;20041;-72
2023/06/15 04:26:13;;;;;;;16.50;8.75;;;;;;;-144.87;100.00;61487.56;4979176;28;20041;-73
2023/06/15 04:28:40;;;;;;;11.32;8.52;;;;;;;-144.87;100.00;61487.56;4997313;28;20121;-73
2023/06/15 04:31:10;;;;;;;15.48;7.45;;;;;;;-144.87;100.00;61487.56;4982864;28;20102;-72
2023/06/15 04:33:42;;;;;;;;;;;;;;;-144.87;100.00;61487.56;4987587;28;20396;-72
2023/06/15 04:36:12;;;;;;;12.50;6.68;;;;;;;-144.87;100.00;61487.56;4978504;28;20000;-72
2023/06/15 04:38:46;;;;;;;14.85;7.32;;;;;;;-144.87;100.00;61487.56;4965933;28;20041;-81
2023/06/15 04:41:14;;;;;;;10.98;6.45;;;;;;;-144.87;100.00;61487.56;4982701;28;20033;-73
2023/06/15 04:43:42;;;;;;;9.57;6.90;;;;;;;-144.87;100.00;61487.56;4994144;28;20038;-72
2023/06/15 04:46:09;;;;;;;12.88;6.20;;;;;;;-144.87;100.00;61487.56;4968686;28;20037;-72
2023/06/15 04:48:35;;;;;;;11.10;6.13;;;;;;;-144.87;100.00;61487.56;4974390;28;20049;-72
2023/06/15 04:51:01;;;;;;;11.55;6.35;;;;;;;-144.87;100.00;61487.56;4983216;28;20034;-73
2023/06/15 04:53:28;;;;;;;9.23;6.78;;;;;;;-144.87;100.00;61487.56;4966538;28;20173;-74
2023/06/15 04:55:54;;;;;;;15.70;6.07;;;;;;;-144.87;100.00;61487.56;4987455;28;20042;-73
2023/06/15 04:58:21;;;;;;;13.07;6.45;;;;;;;-144.87;100.00;61487.56;4969750;28;20050;-72
2023/06/15 05:00:48;;;;;;;9.15;5.80;;;;;;;-144.87;100.00;61487.56;4982874;28;20473;-72
2023/06/15 05:03:16;;;;;;;16.17;6.70;;;;;;;-144.87;100.00;61487.56;4989041;28;20048;-72
2023/06/15 05:05:43;;;;;;;12.90;6.00;;;;;;;-144.87;100.00;61487.56;4971833;28;20089;-72
2023/06/15 05:08:09;;;;;;;23.20;6.55;;;;;;;-144.87;100.00;61487.56;4981904;28;20030;-71
2023/06/15 05:10:37;;;;;;;18.20;6.53;;;;;;;-144.87;100.00;61487.56;4995963;28;20099;-71
2023/06/15 05:13:04;;;;;;;13.35;6.50;;;;;;;-144.87;100.00;61487.56;5025746;28;20052;-72
2023/06/15 05:15:31;;;;;;;21.63;6.85;;;;;;;-144.87;100.00;61487.56;5016645;28;20063;-72
2023/06/15 05:17:58;;;;;;;10.68;6.90;;;;;;;-144.87;100.00;61487.56;5012693;28;20037;-72
2023/06/15 05:20:24;;;;;;;13.38;6.32;;;;;;;-144.87;100.00;61487.56;5000472;28;20040;-72
2023/06/15 05:22:52;;;;;;;19.05;7.50;;;;;;;-144.87;100.00;61487.56;5003159;28;20049;-72
2023/06/15 05:25:19;;;;;;;15.55;6.15;;;;;;;-144.87;100.00;61487.56;4993198;28;20034;-73
2023/06/15 05:27:47;;;;;;;11.38;5.68;;;;;;;-144.87;100.00;61487.56;5016416;28;20068;-72
2023/06/15 05:30:14;;;;;;;10.27;6.60;;;;;;;-144.87;100.00;61487.56;4979041;28;20029;-71
2023/06/15 05:32:41;;;;;;;10.07;6.30;;;;;;;-144.87;100.00;61487.56;5022380;28;20042;-72
2023/06/15 05:35:10;;;;;;;11.32;5.85;;;;;;;-144.87;100.00;61487.56;5018915;28;20730;-72
2023/06/15 05:37:37;;;;;;;12.88;6.07;;;;;;;-144.87;100.00;61487.56;4999657;28;20041;-71
2023/06/15 05:40:06;;;;;;;13.95;6.32;;;;;;;-144.87;100.00;61487.56;5010116;28;20112;-72
2023/06/15 05:42:33;;;;;;;13.75;6.35;;;;;;;-144.87;100.00;61487.56;5026534;28;20072;-72
2023/06/15 05:44:59;;;;;;;9.15;5.80;;;;;;;-144.87;100.00;61487.56;5026710;28;20033;-72
2023/06/15 05:47:26;;;;;;;8.93;6.05;;;;;;;-144.87;100.00;61487.56;5028858;28;20318;-72
2023/06/15 05:49:52;;;;;;;9.75;5.85;;;;;;;-144.87;100.00;61487.56;5032632;28;20034;-72
2023/06/15 05:52:20;;;;;;;9.55;6.05;;;;;;;-144.87;100.00;61487.56;5032939;28;20546;-72
2023/06/15 05:54:46;;;;;;;9.27;6.00;;;;;;;-144.87;100.00;61487.56;5026041;28;20048;-70
2023/06/15 05:57:17;;;;;;;12.93;6.28;;;;;;;-144.87;100.00;61487.56;5030061;28;20057;-71
2023/06/15 05:59:46;;;;;;;11.10;6.28;;;;;;;-144.87;100.00;61487.56;5026495;28;20083;-71
2023/06/15 06:02:13;;;;;;;10.85;6.50;;;;;;;-144.87;100.00;61487.56;4993630;28;20022;-71
2023/06/15 06:04:40;;;;;;;10.30;6.05;;;;;;;-144.87;100.00;61487.56;5023674;28;20038;-71
2023/06/15 06:07:07;;;;;;;12.07;5.60;;;;;;;-144.87;100.00;61487.56;5010000;28;20022;-71
2023/06/15 06:09:39;;;;;;;10.05;6.75;;;;;;;-144.87;100.00;61487.56;5008187;28;20038;-72
2023/06/15 06:12:07;;;;;;;10.32;6.07;;;;;;;-144.87;100.00;61487.56;4996653;28;20037;-72
2023/06/15 06:14:34;;;;;;;15.25;5.82;;;;;;;-144.87;100.00;61487.56;5025576;28;20088;-72
2023/06/15 06:17:01;;;;;;;11.48;5.97;;;;;;;-144.87;100.00;61487.56;5012547;28;20048;-71
2023/06/15 06:19:27;;;;;;;11.18;5.97;;;;;;;-144.87;100.00;61487.56;5015788;28;20161;-72
2023/06/15 06:21:54;;;;;;;11.02;6.32;;;;;;;-144.87;100.00;61487.56;5008511;28;20128;-72
2023/06/15 06:24:21;;;;;;;14.30;6.15;;;;;;;-144.87;100.00;61487.56;5000932;28;20453;-71
2023/06/15 06:26:49;;;;;;;10.30;5.90;;;;;;;-144.87;100.00;61487.56;5023465;28;20032;-72
2023/06/15 06:29:15;;;;;;;8.27;5.47;;;;;;;-144.87;100.00;61487.56;5012199;28;20060;-73
2023/06/15 06:31:42;;;;;;;15.35;6.35;;;;;;;-144.87;100.00;61487.56;5018076;28;20045;-72
2023/06/15 06:34:09;;;;;;;10.68;5.88;;;;;;;-144.87;100.00;61487.56;5003554;28;20044;-72
2023/06/15 06:36:35;;;;;;;16.70;9.77;;;;;;;-144.87;100.00;61487.56;5021885;28;20041;-71
2023/06/15 06:39:01;;;;;;;13.68;5.97;;;;;;;-144.87;100.00;61487.56;5037521;28;20030;-74
2023/06/15 06:41:28;;;;;;;18.83;6.47;;;;;;;-144.87;100.00;61487.56;5036411;28;20055;-73
2023/06/15 06:43:54;;;;;;;9.95;5.53;;;;;;;-144.87;100.00;61487.56;5022596;28;20025;-73
2023/06/15 06:46:22;;;;;;;13.90;5.80;;;;;;;-144.87;100.00;61487.56;5031359;28;20054;-71
2023/06/15 06:48:49;;;;;;;13.85;5.93;;;;;;;-144.87;100.00;61487.56;5026611;28;20063;-72
2023/06/15 06:51:16;;;;;;;17.20;6.13;;;;;;;-144.87;100.00;61487.56;5032904;28;20431;-72
2023/06/15 06:53:42;;;;;;;12.10;5.43;;;;;;;-144.87;100.00;61487.56;4985966;28;20038;-73
2023/06/15 06:56:08;;;;;;;10.68;5.90;;;;;;;-144.87;100.00;61487.56;5024547;28;20045;-72
2023/06/15 06:58:34;;;;;;;12.77;5.93;;;;;;;-144.87;100.00;61487.56;5019602;28;20091;-71
2023/06/15 07:01:01;;;;;;;11.15;5.95;;;;;;;-144.87;100.00;61487.56;5030418;28;20053;-73
2023/06/15 07:03:27;;;;;;;11.75;5.55;;;;;;;-144.87;100.00;61487.56;5029872;28;20318;-73
2023/06/15 07:05:53;;;;;;;27.65;5.85;;;;;;;-144.87;100.00;61487.56;5023304;28;20045;-72
2023/06/15 07:08:21;;;;;;;10.13;5.68;;;;;;;-144.87;100.00;61487.56;5033915;28;20102;-72
2023/06/15 07:10:48;;;;;;;13.02;5.93;;;;;;;-144.87;100.00;61487.56;5032925;28;20010;-73
2023/06/15 07:13:17;;;;;;;9.43;5.13;;;;;;;-144.87;100.00;61487.56;5040566;28;20060;-72
2023/06/15 07:15:43;;;;;;;9.15;5.22;;;;;;;-144.87;100.00;61487.56;5046088;28;20029;-74
2023/06/15 07:18:14;;;;;;;11.43;6.25;;;;;;;-144.87;100.00;61487.56;5048317;28;20037;-71
2023/06/15 07:20:40;;;;;;;13.43;5.80;;;;;;;-144.87;100.00;61487.56;5054393;28;20033;-71
2023/06/15 07:23:07;;;;;;;13.98;5.30;;;;;;;-144.87;100.00;61487.56;5035883;28;20034;-72
2023/06/15 07:25:33;;;;;;;13.98;5.22;;;;;;;-144.87;100.00;61487.56;5054600;28;20042;-72
2023/06/15 07:28:00;;;;;;;12.02;5.43;;;;;;;-144.87;100.00;61487.56;5028191;28;20029;-72
2023/06/15 07:30:26;;;;;;;15.98;5.70;;;;;;;-144.87;100.00;61487.56;5024884;28;20035;-72
2023/06/15 07:32:53;;;;;;;12.43;5.78;;;;;;;-144.87;100.00;61487.56;5015353;28;20056;-72
2023/06/15 07:35:19;;;;;;;12.77;5.50;;;;;;;-144.87;100.00;61487.56;5012792;28;20072;-72
2023/06/15 07:37:45;;;;;;;12.30;5.07;;;;;;;-144.87;100.00;61487.56;5036457;28;20107;-71
2023/06/15 07:40:12;;;;;;;14.55;5.25;;;;;;;-144.87;100.00;61487.56;5022342;28;20045;-72
2023/06/15 07:42:38;;;;;;;9.73;5.15;;;;;;;-144.87;100.00;61487.56;5030055;28;20060;-72
2023/06/15 07:45:05;;;;;;;17.05;5.57;;;;;;;-144.87;100.00;61487.56;5026887;28;20486;-72
2023/06/15 07:47:31;;;;;;;16.73;4.65;;;;;;;-144.87;100.00;61487.56;5015106;28;20049;-72
2023/06/15 07:50:16;;;;;;;11.38;4.55;;;;;;;-144.87;100.00;61487.56;5023338;28;20387;-75
2023/06/15 07:52:42;;;;;;;12.35;4.45;;;;;;;-144.87;100.00;61487.56;5025235;28;20045;-72
2023/06/15 07:55:09;;;;;;;14.77;4.90;;;;;;;-144.87;100.00;61487.56;5022013;28;20057;-72
2023/06/15 07:57:35;;;;;;;13.50;4.72;;;;;;;-144.87;100.00;61487.56;5009795;28;20065;-71
2023/06/15 08:00:04;;;;;;;11.27;4.70;;;;;;;-144.87;100.00;61487.56;5026849;28;20029;-72
2023/06/15 08:02:31;;;;;;;10.23;4.90;;;;;;;-144.87;100.00;61487.56;5016287;28;20030;-73
2023/06/15 08:04:57;;;;;;;11.13;5.10;;;;;;;-144.87;100.00;61487.56;5021182;28;20058;-70
2023/06/15 08:07:23;;;;;;;8.27;4.90;;;;;;;-144.87;100.00;61487.56;5026465;28;20053;-72
2023/06/15 08:09:49;;;;;;;14.75;5.13;;;;;;;-144.87;100.00;61487.56;5024315;28;20041;-71
2023/06/15 08:12:17;;;;;;;12.30;6.40;;;;;;;-144.87;100.00;61487.56;5003432;28;20037;-71
2023/06/15 08:14:43;;;;;;;15.20;5.05;;;;;;;-144.87;100.00;61487.56;5017606;28;20216;-71
2023/06/15 08:17:09;;;;;;;14.27;4.95;;;;;;;-144.87;100.00;61487.56;5028506;28;20041;-71
2023/06/15 08:19:36;;;;;;;11.85;5.05;;;;;;;-144.87;100.00;61487.56;5011889;28;20053;-72
2023/06/15 08:22:02;;;;;;;11.57;5.00;;;;;;;-144.87;100.00;61487.56;5019480;28;20065;-71
2023/06/15 08:24:29;;;;;;;11.82;5.22;;;;;;;-144.87;100.00;61487.56;5023285;28;20038;-71
2023/06/15 08:26:55;;;;;;;14.95;4.45;;;;;;;-144.87;100.00;61487.56;5012270;28;20046;-71
2023/06/15 08:29:21;;;;;;;10.30;5.05;;;;;;;-144.87;100.00;61487.56;5022583;28;20041;-71
2023/06/15 08:31:48;;;;;;;14.77;5.35;;;;;;;-144.87;100.00;61487.56;5010503;28;20038;-72
2023/06/15 08:34:14;;;;;;;14.10;4.72;;;;;;;-144.87;100.00;61487.56;5010437;28;20136;-73
2023/06/15 08:36:41;;;;;;;15.52;4.88;;;;;;;-144.87;100.00;61487.56;5023055;28;20038;-72
2023/06/15 08:39:07;;;;;;;10.27;4.13;;;;;;;-144.87;100.00;61487.56;5013094;28;20030;-68
2023/06/15 08:41:36;;;;;;;7.70;4.03;;;;;;;-144.87;100.00;61487.56;5020411;28;20497;-69
2023/06/15 08:44:05;;;;;;;12.10;4.70;;;;;;;-144.87;100.00;61487.56;5031491;28;20038;-70
2023/06/15 08:46:32;;;;;;;10.02;4.50;;;;;;;-144.87;100.00;61487.56;5022063;28;20044;-74
2023/06/15 08:48:58;;;;;;;8.55;4.03;;;;;;;-144.87;100.00;61487.56;5029774;28;20039;-71
2023/06/15 08:51:25;;;;;;;9.30;4.15;;;;;;;-144.87;100.00;61487.56;5025819;28;20114;-73
2023/06/15 08:53:56;;;;;;;9.55;3.80;;;;;;;-144.87;100.00;61487.56;5026489;28;20029;-72
2023/06/15 08:56:22;;;;;;;9.77;4.40;;;;;;;-144.87;100.00;61487.56;5030440;28;20037;-72
2023/06/15 08:58:49;;;;;;;10.70;3.75;;;;;;;-144.87;100.00;61487.56;5025329;28;20045;-72
2023/06/15 09:01:25;;;;;;;8.57;3.65;;;;;;;-144.87;100.00;61487.56;5013725;28;20036;-72
2023/06/15 09:03:53;;;;;;;9.98;4.07;;;;;;;-144.87;100.00;61487.56;5018766;28;20042;-72
2023/06/15 09:06:23;;;;;;;7.75;3.78;;;;;;;-144.87;100.00;61487.56;5029939;28;20370;-72
2023/06/15 09:08:51;;;;;;;7.07;4.45;;;;;;;-144.87;100.00;61487.56;5026696;28;20025;-72
2023/06/15 09:11:18;;;;;;;5.28;3.80;;;;;;;-144.87;100.00;61487.56;5018280;28;20601;-72
2023/06/15 09:13:45;;;;;;;8.50;3.60;;;;;;;-144.87;100.00;61487.56;5004800;28;20054;-71
2023/06/15 09:16:11;;;;;;;11.63;3.95;;;;;;;-144.87;100.00;61487.56;4998605;28;20038;-75
2023/06/15 09:18:47;;;;;;;8.82;3.67;;;;;;;-144.87;100.00;61487.56;4984812;28;20060;-71
2023/06/15 09:21:17;;;;;;;9.50;3.92;;;;;;;-144.87;100.00;61487.56;4982957;28;20073;-72
2023/06/15 09:23:45;;;;;;;8.63;4.25;;;;;;;-144.87;100.00;61487.56;5014938;28;20030;-72
2023/06/15 09:26:26;;;;;;;7.47;3.90;;;;;;;-144.87;100.00;61487.56;4993224;28;20030;-72
2023/06/15 09:28:56;;;;;;;;;;;;;;;-144.87;100.00;61487.56;5005083;28;20546;-73
2023/06/15 09:31:35;;;;;;;8.68;4.10;;;;;;;-144.87;100.00;61487.56;5010687;28;19917;-71
2023/06/15 09:34:10;;;;;;;16.50;4.07;;;;;;;-144.87;100.00;61487.56;4995617;28;20049;-72
2023/06/15 09:36:46;;;;;;;13.85;3.75;;;;;;;-144.87;100.00;61487.56;4987937;28;20034;-71
2023/06/15 09:39:13;;;;;;;8.38;4.05;;;;;;;-144.87;100.00;61487.56;4983981;28;20092;-72
2023/06/15 09:42:00;;;;;;;9.15;3.75;;;;;;;-144.87;100.00;61487.56;4987896;28;20046;-72
2023/06/15 09:44:27;;;;;;;10.90;3.90;;;;;;;-144.87;100.00;61487.56;4991299;28;20033;-72
2023/06/15 09:47:02;;;;;;;8.30;3.67;;;;;;;-144.87;100.00;61487.56;4979519;28;20033;-72
2023/06/15 09:49:31;;;;;;;11.20;3.38;;;;;;;-144.87;100.00;61487.56;4994286;28;20049;-72
2023/06/15 09:51:58;;;;;;;9.05;4.03;;;;;;;-144.87;100.00;61487.56;4994611;28;20073;-72
2023/06/15 09:54:28;;;;;;;6.47;3.53;;;;;;;-144.87;100.00;61487.56;4977162;28;20034;-72
2023/06/15 09:56:55;;;;;;;6.57;3.78;;;;;;;-144.87;100.00;61487.56;4977545;28;20781;-71
2023/06/15 09:59:22;;;;;;;9.60;3.30;;;;;;;-144.87;100.00;61487.56;4998965;28;20034;-70
2023/06/15 10:01:50;;;;;;;9.23;3.42;;;;;;;-144.87;100.00;61487.56;5014809;28;20040;-69
2023/06/15 10:04:21;;;;;;;10.43;3.50;;;;;;;-144.87;100.00;61487.56;5003798;28;20026;-71
2023/06/15 10:07:01;;;;;;;10.07;3.40;;;;;;;-144.87;100.00;61487.56;4986471;28;20035;-71
2023/06/15 10:09:29;;;;;;;10.23;3.60;;;;;;;-144.87;100.00;61487.56;4996771;28;20050;-71
2023/06/15 10:12:05;;;;;;;13.18;3.53;;;;;;;-144.87;100.00;61487.56;5001501;28;20068;-72
2023/06/15 10:14:35;;;;;;;8.80;3.42;;;;;;;-144.87;100.00;61487.56;5022060;28;20041;-71
2023/06/15 10:17:05;;;;;;;5.30;3.40;;;;;;;-144.87;100.00;61487.56;5011743;28;20080;-72
2023/06/15 10:19:33;;;;;;;5.07;3.00;;;;;;;-144.87;100.00;61487.56;5022852;28;20104;-71
2023/06/15 10:21:59;;;;;;;5.90;3.35;;;;;;;-144.87;100.00;61487.56;5030781;28;20051;-71
2023/06/15 10:24:27;;;;;;;5.40;3.75;;;;;;;-144.87;100.00;61487.56;5027609;28;20375;-71
2023/06/15 10:26:54;;;;;;;11.90;3.45;;;;;;;-144.87;100.00;61487.56;4995077;28;20048;-71
2023/06/15 10:29:39;;;;;;;5.82;3.15;;;;;;;-144.87;100.00;61487.56;5027575;28;20038;-71
2023/06/15 10:32:20;;;;;;;11.88;4.10;;;;;;;-144.87;100.00;61487.56;5030401;28;20518;-70
2023/06/15 10:34:55;;;;;;;8.18;3.63;;;;;;;-144.87;100.00;61487.56;5027522;28;20037;-70
2023/06/15 10:37:31;;;;;;;8.23;3.22;;;;;;;-144.87;100.00;61487.56;5021345;28;20042;-72
2023/06/15 10:40:02;;;;;;;6.65;3.63;;;;;;;-144.87;100.00;61487.56;5026965;28;20062;-70
2023/06/15 10:42:28;;;;;;;6.65;3.22;;;;;;;-144.87;100.00;61487.56;5022059;28;20046;-70
2023/06/15 10:44:59;;;;;;;6.43;3.40;;;;;;;-144.87;100.00;61487.56;5015771;28;20058;-71
2023/06/15 10:47:25;;;;;;;6.63;2.85;;;;;;;-144.87;100.00;61487.56;5012908;28;20081;-71
2023/06/15 10:49:55;;;;;;;6.50;3.08;;;;;;;-144.87;100.00;61487.56;5041097;28;20067;-71
2023/06/15 10:52:22;;;;;;;7.22;3.40;;;;;;;-144.87;100.00;61487.56;5029346;28;20042;-72
2023/06/15 10:54:48;;;;;;;7.85;3.05;;;;;;;-144.87;100.00;61487.56;5012135;28;20052;-71
2023/06/15 10:57:18;;;;;;;13.02;3.33;;;;;;;-144.87;100.00;61487.56;5015948;28;20061;-72
2023/06/15 10:59:51;;;;;;;8.68;3.40;;;;;;;-144.87;100.00;61487.56;5025737;28;20046;-72
2023/06/15 11:02:31;;;;;;;8.35;3.45;;;;;;;-144.87;100.00;61487.56;5036691;28;20116;-72
2023/06/15 11:05:04;;;;;;;;;;;;;;;-144.87;100.00;61487.56;5017151;28;20379;-71
2023/06/15 11:07:34;;;;;;;4.53;3.20;;;;;;;-144.87;100.00;61487.56;5028288;28;20018;-71